createdAt,value
2018-07-29T00:01:32.997Z,100377.66
2018-07-29T00:04:01.059Z,100380.07
2018-07-29T00:06:29.135Z,100382.84
2018-07-29T00:08:57.193Z,100371.69
2018-07-29T00:11:25.318Z,100376.91
2018-07-29T00:13:53.371Z,100381.19
2018-07-29T00:16:21.436Z,100385.52
2018-07-29T00:18:49.499Z,100388.52
2018-07-29T00:21:17.656Z,100388.95
2018-07-29T00:23:45.723Z,100393.26
2018-07-29T00:26:13.769Z,100395.38
2018-07-29T00:28:41.803Z,100396.05
2018-07-29T00:31:09.860Z,100409.19
2018-07-29T00:33:37.897Z,100412.97
2018-07-29T00:36:05.947Z,100407.13
2018-07-29T00:38:33.995Z,100412.19
2018-07-29T00:41:02.059Z,100416.03
2018-07-29T00:43:30.127Z,100417.34
2018-07-29T00:45:58.199Z,100415.47
2018-07-29T00:48:26.284Z,100416.61
2018-07-29T00:50:54.438Z,100413.06
2018-07-29T00:53:22.510Z,100415.52
2018-07-29T00:55:50.641Z,100411.59
2018-07-29T00:58:18.694Z,100409.28
2018-07-29T01:00:46.742Z,100413.98
2018-07-29T01:03:14.795Z,100416.34
2018-07-29T01:05:42.859Z,100421.75
2018-07-29T01:08:10.925Z,100420.33
2018-07-29T01:10:39.066Z,100413.24
2018-07-29T01:13:07.450Z,100415.69
2018-07-29T01:15:35.482Z,100415.77
2018-07-29T01:18:03.552Z,100418.81
2018-07-29T01:20:31.723Z,100421.56
2018-07-29T01:22:59.863Z,100423.55
2018-07-29T01:25:27.918Z,100426.53
2018-07-29T01:27:55.967Z,100434.58
2018-07-29T01:30:24.025Z,100435.32
2018-07-29T01:32:52.087Z,100446.70
2018-07-29T01:35:20.256Z,100452.81
2018-07-29T01:37:48.352Z,100450.70
2018-07-29T01:40:16.382Z,100446.41
2018-07-29T01:42:44.468Z,100454.17
2018-07-29T01:45:12.518Z,100454.73
2018-07-29T01:47:40.555Z,100458.28
2018-07-29T01:50:08.627Z,100461.53
2018-07-29T01:52:36.675Z,100460.05
2018-07-29T01:55:04.816Z,100460.83
2018-07-29T01:57:32.925Z,100450.42
2018-07-29T02:00:00.977Z,100450.23
2018-07-29T02:02:29.047Z,100449.53
2018-07-29T02:04:57.099Z,100456.70
2018-07-29T02:07:25.159Z,100455.12
2018-07-29T02:09:53.264Z,100450.33
2018-07-29T02:12:21.329Z,100457.55
2018-07-29T02:14:49.383Z,100456.86
2018-07-29T02:17:17.444Z,100448.09
2018-07-29T02:19:45.501Z,100449.23
2018-07-29T02:22:13.563Z,100445.91
2018-07-29T02:24:41.633Z,100444.33
2018-07-29T02:27:09.694Z,100443.94
2018-07-29T02:29:37.798Z,100440.25
2018-07-29T02:32:05.876Z,100443.24
2018-07-29T02:34:33.932Z,100445.60
2018-07-29T02:37:02.020Z,100446.13
2018-07-29T02:39:30.088Z,100445.90
2018-07-29T02:41:58.177Z,100436.97
2018-07-29T02:44:26.364Z,100448.18
2018-07-29T02:46:54.420Z,100455.76
2018-07-29T02:49:22.478Z,100458.30
2018-07-29T02:51:50.516Z,100461.39
2018-07-29T02:54:18.571Z,100464.93
2018-07-29T02:56:46.626Z,100447.88
2018-07-29T02:59:14.729Z,100443.14
2018-07-29T03:01:42.832Z,100441.27
2018-07-29T03:04:10.922Z,100450.98
2018-07-29T03:06:38.976Z,100448.18
2018-07-29T03:09:08.348Z,100442.71
2018-07-29T03:11:36.395Z,100459.81
2018-07-29T03:14:04.455Z,100465.45
2018-07-29T03:16:32.556Z,100450.32
2018-07-29T03:19:00.703Z,100462.91
2018-07-29T03:21:28.767Z,100456.31
2018-07-29T03:23:56.910Z,100465.94
2018-07-29T03:26:24.972Z,100456.70
2018-07-29T03:28:53.045Z,100460.87
2018-07-29T03:31:21.114Z,100459.67
2018-07-29T03:33:49.187Z,100462.22
2018-07-29T03:36:17.236Z,100474.00
2018-07-29T03:38:45.288Z,100474.73
2018-07-29T03:41:13.351Z,100470.66
2018-07-29T03:43:41.439Z,100478.34
2018-07-29T03:46:09.482Z,100472.27
2018-07-29T03:48:37.607Z,100487.64
2018-07-29T03:51:05.667Z,100487.06
2018-07-29T03:53:33.731Z,100472.56
2018-07-29T03:56:01.795Z,100489.47
2018-07-29T03:58:29.878Z,100487.34
2018-07-29T04:00:57.940Z,100491.09
2018-07-29T04:03:26.012Z,100503.29
2018-07-29T04:05:54.079Z,100496.80
2018-07-29T04:08:22.149Z,100501.00
2018-07-29T04:10:50.246Z,100505.95
2018-07-29T04:13:18.387Z,100500.95
2018-07-29T04:15:46.520Z,100513.89
2018-07-29T04:18:14.703Z,100508.75
2018-07-29T04:20:42.851Z,100510.02
2018-07-29T04:23:10.967Z,100512.34
2018-07-29T04:25:39.074Z,100506.67
2018-07-29T04:28:07.133Z,100509.23
2018-07-29T04:30:35.323Z,100512.17
2018-07-29T04:33:03.372Z,100510.06
2018-07-29T04:35:31.423Z,100505.70
2018-07-29T04:37:59.521Z,100502.27
2018-07-29T04:40:27.619Z,100508.39
2018-07-29T04:42:55.675Z,100516.31
2018-07-29T04:45:23.777Z,100513.80
2018-07-29T04:47:51.807Z,100510.24
2018-07-29T04:50:19.855Z,100512.88
2018-07-29T04:52:48.025Z,100521.13
2018-07-29T04:55:16.157Z,100517.90
2018-07-29T04:57:44.213Z,100512.64
2018-07-29T05:00:12.321Z,100509.02
2018-07-29T05:02:40.404Z,100516.56
2018-07-29T05:05:08.481Z,100513.80
2018-07-29T05:07:36.566Z,100509.35
2018-07-29T05:10:05.268Z,100513.31
2018-07-29T05:12:33.355Z,100507.63
2018-07-29T05:15:01.403Z,100506.19
2018-07-29T05:17:29.456Z,100504.47
2018-07-29T05:19:57.519Z,100503.23
2018-07-29T05:22:25.571Z,100499.66
2018-07-29T05:24:53.649Z,100487.38
2018-07-29T05:27:21.693Z,100490.23
2018-07-29T05:29:49.795Z,100484.90
2018-07-29T05:32:17.860Z,100496.69
2018-07-29T05:34:45.987Z,100493.05
2018-07-29T05:37:14.081Z,100482.85
2018-07-29T05:39:42.138Z,100504.22
2018-07-29T05:42:10.329Z,100507.59
2018-07-29T05:44:38.400Z,100498.09
2018-07-29T05:47:06.449Z,100513.54
2018-07-29T05:49:34.575Z,100505.27
2018-07-29T05:52:02.682Z,100507.81
2018-07-29T05:54:30.830Z,100515.49
2018-07-29T05:56:58.918Z,100506.56
2018-07-29T05:59:27.003Z,100514.43
2018-07-29T06:01:55.135Z,100504.90
2018-07-29T06:04:23.202Z,100512.84
2018-07-29T06:06:51.274Z,100517.77
2018-07-29T06:09:19.342Z,100522.14
2018-07-29T06:11:47.446Z,100518.87
2018-07-29T06:14:15.427Z,100521.06
2018-07-29T06:16:43.507Z,100518.86
2018-07-29T06:19:11.607Z,100518.87
2018-07-29T06:21:39.647Z,100523.50
2018-07-29T06:24:07.772Z,100527.59
2018-07-29T06:26:35.812Z,100522.67
2018-07-29T06:29:03.883Z,100517.51
2018-07-29T06:31:31.944Z,100521.57
2018-07-29T06:34:00.023Z,100527.55
2018-07-29T06:36:28.083Z,100530.30
2018-07-29T06:38:56.201Z,100528.40
2018-07-29T06:41:24.254Z,100524.78
2018-07-29T06:43:52.415Z,100530.78
2018-07-29T06:46:20.518Z,100517.52
2018-07-29T06:48:48.618Z,100519.66
2018-07-29T06:51:16.689Z,100518.75
2018-07-29T06:53:44.758Z,100514.11
2018-07-29T06:56:12.856Z,100519.58
2018-07-29T06:58:40.915Z,100518.67
2018-07-29T07:01:08.970Z,100512.48
2018-07-29T07:03:37.052Z,100504.02
2018-07-29T07:06:05.131Z,100509.13
2018-07-29T07:08:33.233Z,100508.59
2018-07-29T07:11:01.304Z,100505.85
2018-07-29T07:13:29.351Z,100510.80
2018-07-29T07:15:57.474Z,100510.06
2018-07-29T07:18:25.528Z,100509.73
2018-07-29T07:20:53.636Z,100509.14
2018-07-29T07:23:21.706Z,100508.03
2018-07-29T07:25:49.807Z,100506.17
2018-07-29T07:28:18.024Z,100501.89
2018-07-29T07:30:46.371Z,100504.94
2018-07-29T07:33:14.453Z,100507.08
2018-07-29T07:35:42.527Z,100507.70
2018-07-29T07:38:10.591Z,100504.66
2018-07-29T07:40:38.740Z,100511.56
2018-07-29T07:43:06.771Z,100504.27
2018-07-29T07:45:34.991Z,100509.98
2018-07-29T07:48:03.585Z,100504.16
2018-07-29T07:50:31.694Z,100505.23
2018-07-29T07:52:59.731Z,100505.12
2018-07-29T07:55:27.784Z,100500.95
2018-07-29T07:57:56.869Z,100498.41
2018-07-29T08:00:25.015Z,100495.16
2018-07-29T08:02:53.058Z,100498.20
2018-07-29T08:05:21.162Z,100491.25
2018-07-29T08:07:51.766Z,100491.79
2018-07-29T08:10:19.916Z,100493.95
2018-07-29T08:12:48.001Z,100496.75
2018-07-29T08:15:16.087Z,100494.58
2018-07-29T08:17:44.151Z,100490.92
2018-07-29T08:20:12.230Z,100487.77
2018-07-29T08:22:40.298Z,100488.39
2018-07-29T08:25:08.433Z,100486.53
2018-07-29T08:27:36.485Z,100485.73
2018-07-29T08:30:04.938Z,100483.63
2018-07-29T08:32:33.010Z,100487.03
2018-07-29T08:35:01.125Z,100484.36
2018-07-29T08:37:29.196Z,100486.47
2018-07-29T08:39:57.266Z,100480.33
2018-07-29T08:42:25.379Z,100486.20
2018-07-29T08:44:53.464Z,100485.66
2018-07-29T08:47:21.717Z,100486.53
2018-07-29T08:49:49.776Z,100481.54
2018-07-29T08:52:17.894Z,100484.13
2018-07-29T08:54:45.930Z,100484.46
2018-07-29T08:57:14.007Z,100489.39
2018-07-29T08:59:42.091Z,100484.37
2018-07-29T09:02:10.199Z,100485.60
2018-07-29T09:04:38.261Z,100478.19
2018-07-29T09:07:06.373Z,100476.30
2018-07-29T09:09:34.444Z,100473.73
2018-07-29T09:12:02.625Z,100468.99
2018-07-29T09:14:30.715Z,100472.25
2018-07-29T09:16:58.786Z,100466.44
2018-07-29T09:19:26.880Z,100467.97
2018-07-29T09:21:54.935Z,100465.78
2018-07-29T09:24:22.999Z,100466.66
2018-07-29T09:26:51.090Z,100455.22
2018-07-29T09:29:19.155Z,100449.95
2018-07-29T09:31:47.219Z,100452.29
2018-07-29T09:34:15.267Z,100453.34
2018-07-29T09:36:43.535Z,100450.46
2018-07-29T09:39:11.717Z,100445.23
2018-07-29T09:41:39.802Z,100439.73
2018-07-29T09:44:07.861Z,100445.93
2018-07-29T09:46:36.045Z,100450.63
2018-07-29T09:49:04.099Z,100450.37
2018-07-29T09:51:32.491Z,100449.33
2018-07-29T09:54:00.586Z,100445.27
2018-07-29T09:56:28.641Z,100445.78
2018-07-29T09:58:56.737Z,100438.24
2018-07-29T10:01:24.806Z,100432.65
2018-07-29T10:03:52.856Z,100435.62
2018-07-29T10:06:20.938Z,100432.38
2018-07-29T10:08:48.994Z,100426.77
2018-07-29T10:11:17.066Z,100431.89
2018-07-29T10:13:45.099Z,100433.90
2018-07-29T10:16:13.158Z,100425.14
2018-07-29T10:18:41.224Z,100420.28
2018-07-29T10:21:09.334Z,100417.38
2018-07-29T10:23:37.420Z,100413.92
2018-07-29T10:26:05.492Z,100407.09
2018-07-29T10:28:33.542Z,100406.61
2018-07-29T10:31:01.615Z,100408.23
2018-07-29T10:33:29.702Z,100412.91
2018-07-29T10:35:57.781Z,100411.63
2018-07-29T10:38:25.831Z,100407.95
2018-07-29T10:40:53.987Z,100398.69
2018-07-29T10:43:22.101Z,100401.31
2018-07-29T10:45:50.187Z,100408.82
2018-07-29T10:48:18.279Z,100393.98
2018-07-29T10:50:46.343Z,100402.59
2018-07-29T10:53:14.398Z,100393.96
2018-07-29T10:55:42.460Z,100386.73
2018-07-29T10:58:10.674Z,100382.05
2018-07-29T11:00:39.038Z,100378.50
2018-07-29T11:03:07.152Z,100372.33
2018-07-29T11:05:35.450Z,100378.59
2018-07-29T11:08:03.512Z,100376.23
2018-07-29T11:10:31.572Z,100375.43
2018-07-29T11:12:59.736Z,100386.69
2018-07-29T11:15:28.063Z,100380.28
2018-07-29T11:17:56.304Z,100386.67
2018-07-29T11:20:24.359Z,100384.49
2018-07-29T11:22:52.432Z,100384.62
2018-07-29T11:25:20.515Z,100388.80
2018-07-29T11:27:48.675Z,100381.49
2018-07-29T11:30:16.877Z,100366.84
2018-07-29T11:32:45.012Z,100377.77
2018-07-29T11:35:13.333Z,100386.37
2018-07-29T11:37:41.483Z,100374.88
2018-07-29T11:40:09.732Z,100372.91
2018-07-29T11:42:37.859Z,100379.33
2018-07-29T11:45:06.260Z,100380.28
2018-07-29T11:47:35.163Z,100371.70
2018-07-29T11:50:03.561Z,100370.48
2018-07-29T11:52:31.654Z,100369.76
2018-07-29T11:54:59.767Z,100367.20
2018-07-29T11:57:28.040Z,100362.50
2018-07-29T11:59:55.996Z,100369.23
2018-07-29T12:02:24.066Z,100378.48
2018-07-29T12:04:53.723Z,100376.63
2018-07-29T12:07:21.912Z,100374.09
2018-07-29T12:09:50.221Z,100370.14
2018-07-29T12:12:19.326Z,100369.27
2018-07-29T12:14:48.119Z,100362.29
2018-07-29T12:17:16.208Z,100360.89
2018-07-29T12:19:44.255Z,100359.86
2018-07-29T12:22:12.321Z,100352.16
2018-07-29T12:24:40.401Z,100346.14
2018-07-29T12:27:09.793Z,100349.86
2018-07-29T12:29:37.998Z,100348.91
2018-07-29T12:32:06.183Z,100340.28
2018-07-29T12:34:34.922Z,100336.72
2018-07-29T12:37:03.100Z,100334.88
2018-07-29T12:39:31.190Z,100340.66
2018-07-29T12:41:59.346Z,100334.61
2018-07-29T12:44:27.446Z,100337.88
2018-07-29T12:46:55.498Z,100335.31
2018-07-29T12:49:23.531Z,100335.13
2018-07-29T12:51:51.612Z,100333.23
2018-07-29T12:54:19.702Z,100334.70
2018-07-29T12:56:47.831Z,100329.83
2018-07-29T12:59:39.887Z,100331.25
2018-07-29T13:02:08.370Z,100329.95
2018-07-29T13:04:36.418Z,100326.93
2018-07-29T13:07:04.503Z,100327.58
2018-07-29T13:09:32.560Z,100323.44
2018-07-29T13:12:00.740Z,100321.19
2018-07-29T13:14:28.702Z,100321.92
2018-07-29T13:16:56.825Z,100321.19
2018-07-29T13:19:24.910Z,100321.34
2018-07-29T13:21:53.086Z,100310.88
2018-07-29T13:24:22.359Z,100317.27
2018-07-29T13:26:52.627Z,100325.55
2018-07-29T13:29:21.173Z,100319.98
2018-07-29T13:31:49.263Z,100320.56
2018-07-29T13:34:17.308Z,100316.02
2018-07-29T13:36:45.364Z,100311.91
2018-07-29T13:39:13.621Z,100320.12
2018-07-29T13:41:41.716Z,100302.80
2018-07-29T13:44:09.830Z,100310.92
2018-07-29T13:46:39.059Z,100310.95
2018-07-29T13:49:09.092Z,100315.28
2018-07-29T13:51:40.390Z,100310.30
2018-07-29T13:54:10.538Z,100295.69
2018-07-29T13:56:43.321Z,100298.06
2018-07-29T13:59:12.465Z,100306.20
2018-07-29T14:01:43.592Z,100296.83
2018-07-29T14:04:11.928Z,100297.32
2018-07-29T14:06:41.543Z,100296.92
2018-07-29T14:09:10.823Z,100299.50
2018-07-29T14:11:38.868Z,100301.30
2018-07-29T14:14:06.939Z,100297.03
2018-07-29T14:16:35.303Z,100292.57
2018-07-29T14:19:03.359Z,100289.36
2018-07-29T14:21:31.743Z,100291.09
2018-07-29T14:23:59.915Z,100286.45
2018-07-29T14:26:28.002Z,100285.71
2018-07-29T14:28:56.131Z,100284.36
2018-07-29T14:31:24.353Z,100287.87
2018-07-29T14:33:53.665Z,100279.20
2018-07-29T14:36:21.719Z,100276.42
2018-07-29T14:38:49.846Z,100281.89
2018-07-29T14:41:17.924Z,100271.70
2018-07-29T14:43:45.964Z,100267.02
2018-07-29T14:46:14.011Z,100270.39
2018-07-29T14:48:42.107Z,100263.41
2018-07-29T14:51:10.181Z,100257.58
2018-07-29T14:53:38.427Z,100253.01
2018-07-29T14:56:06.451Z,100254.20
2018-07-29T14:58:34.492Z,100250.06
2018-07-29T15:01:02.595Z,100243.83
2018-07-29T15:03:30.677Z,100248.63
2018-07-29T15:05:58.764Z,100243.20
2018-07-29T15:08:26.826Z,100233.06
2018-07-29T15:10:54.891Z,100230.30
2018-07-29T15:13:22.963Z,100224.30
2018-07-29T15:15:51.066Z,100224.41
2018-07-29T15:18:19.139Z,100228.14
2018-07-29T15:20:47.182Z,100221.45
2018-07-29T15:23:15.496Z,100223.87
2018-07-29T15:25:43.628Z,100227.08
2018-07-29T15:28:11.755Z,100218.57
2018-07-29T15:30:39.907Z,100225.39
2018-07-29T15:33:08.046Z,100226.31
2018-07-29T15:35:36.130Z,100232.12
2018-07-29T15:38:04.551Z,100226.76
2018-07-29T15:40:32.717Z,100223.11
2018-07-29T15:43:00.744Z,100221.41
2018-07-29T15:45:28.854Z,100218.29
2018-07-29T15:47:56.978Z,100216.37
2018-07-29T15:50:25.111Z,100224.80
2018-07-29T15:52:53.196Z,100215.59
2018-07-29T15:55:21.628Z,100217.00
2018-07-29T15:57:49.795Z,100216.42
2018-07-29T16:00:18.888Z,100221.61
2018-07-29T16:02:47.010Z,100211.00
2018-07-29T16:05:16.182Z,100209.83
2018-07-29T16:07:44.311Z,100207.93
2018-07-29T16:10:12.393Z,100212.58
2018-07-29T16:12:40.968Z,100207.41
2018-07-29T16:15:10.019Z,100211.35
2018-07-29T16:17:38.328Z,100208.41
2018-07-29T16:20:06.399Z,100206.86
2018-07-29T16:22:34.514Z,100213.68
2018-07-29T16:25:02.591Z,100216.45
2018-07-29T16:27:30.900Z,100215.88
2018-07-29T16:29:59.110Z,100213.45
2018-07-29T16:32:27.195Z,100202.55
2018-07-29T16:34:56.219Z,100205.36
2018-07-29T16:37:24.294Z,100206.27
2018-07-29T16:39:52.538Z,100213.28
2018-07-29T16:42:20.632Z,100213.28
2018-07-29T16:44:48.690Z,100210.97
2018-07-29T16:47:16.769Z,100209.56
2018-07-29T16:49:45.112Z,100209.72
2018-07-29T16:52:13.210Z,100199.29
2018-07-29T16:54:41.312Z,100207.96
2018-07-29T16:57:09.342Z,100213.98
2018-07-29T16:59:37.450Z,100204.88
2018-07-29T17:02:05.616Z,100204.89
2018-07-29T17:04:33.682Z,100203.44
2018-07-29T17:07:01.796Z,100205.14
2018-07-29T17:09:29.867Z,100208.38
2018-07-29T17:11:57.910Z,100208.20
2018-07-29T17:14:26.038Z,100203.60
2018-07-29T17:16:54.121Z,100207.20
2018-07-29T17:19:22.258Z,100203.30
2018-07-29T17:21:50.307Z,100205.16
2018-07-29T17:24:18.407Z,100201.95
2018-07-29T17:26:46.582Z,100205.06
2018-07-29T17:29:14.696Z,100208.62
2018-07-29T17:31:42.730Z,100205.30
2018-07-29T17:34:10.848Z,100206.66
2018-07-29T17:36:38.892Z,100203.91
2018-07-29T17:39:09.110Z,100198.17
2018-07-29T17:41:37.389Z,100204.14
2018-07-29T17:44:05.438Z,100204.05
2018-07-29T17:46:33.518Z,100203.88
2018-07-29T17:49:02.171Z,100208.23
2018-07-29T17:51:30.915Z,100211.06
2018-07-29T17:54:02.834Z,100214.79
2018-07-29T17:56:30.935Z,100211.64
2018-07-29T17:58:59.154Z,100215.76
2018-07-29T18:01:30.160Z,100210.66
2018-07-29T18:03:59.193Z,100214.55
2018-07-29T18:06:27.553Z,100212.91
2018-07-29T18:08:56.769Z,100217.53
2018-07-29T18:11:24.957Z,100218.38
2018-07-29T18:13:53.518Z,100217.63
2018-07-29T18:16:21.668Z,100213.66
2018-07-29T18:18:50.206Z,100219.09
2018-07-29T18:21:18.346Z,100221.69
2018-07-29T18:23:46.515Z,100220.09
2018-07-29T18:26:14.644Z,100224.45
2018-07-29T18:28:42.768Z,100224.80
2018-07-29T18:31:11.293Z,100216.87
2018-07-29T18:33:39.524Z,100225.08
2018-07-29T18:36:07.633Z,100223.22
2018-07-29T18:38:35.748Z,100220.27
2018-07-29T18:41:04.746Z,100225.55
2018-07-29T18:43:32.799Z,100226.42
2018-07-29T18:46:02.072Z,100231.59
2018-07-29T18:48:30.174Z,100232.02
2018-07-29T18:50:58.280Z,100236.52
2018-07-29T18:53:26.409Z,100231.91
2018-07-29T18:55:56.497Z,100243.15
2018-07-29T18:58:24.577Z,100243.65
2018-07-29T19:00:52.726Z,100252.23
2018-07-29T19:03:20.905Z,100264.23
2018-07-29T19:05:49.418Z,100261.14
2018-07-29T19:08:17.578Z,100255.76
2018-07-29T19:10:45.801Z,100260.10
2018-07-29T19:13:13.927Z,100261.72
2018-07-29T19:15:42.053Z,100257.80
2018-07-29T19:18:11.036Z,100260.61
2018-07-29T19:20:39.160Z,100259.50
2018-07-29T19:23:07.824Z,100259.33
2018-07-29T19:25:35.998Z,100265.69
2018-07-29T19:28:05.122Z,100263.48
2018-07-29T19:30:33.236Z,100269.72
2018-07-29T19:33:02.316Z,100278.70
2018-07-29T19:35:30.475Z,100283.39
2018-07-29T19:37:58.623Z,100282.48
2018-07-29T19:40:26.733Z,100285.50
2018-07-29T19:42:54.913Z,100292.54
2018-07-29T19:45:23.050Z,100297.91
2018-07-29T19:47:51.199Z,100303.80
2018-07-29T19:50:19.310Z,100314.32
2018-07-29T19:52:47.449Z,100311.47
2018-07-29T19:55:18.037Z,100315.63
2018-07-29T19:57:46.106Z,100317.70
2018-07-29T20:00:14.303Z,100323.34
2018-07-29T20:02:53.504Z,100320.67
2018-07-29T20:05:23.633Z,100324.59
2018-07-29T20:07:52.260Z,100329.42
2018-07-29T20:10:20.386Z,100322.89
2018-07-29T20:12:50.683Z,100332.66
2018-07-29T20:15:19.559Z,100333.18
2018-07-29T20:17:48.584Z,100331.30
2018-07-29T20:20:16.707Z,100336.57
2018-07-29T20:22:44.842Z,100335.21
2018-07-29T20:25:13.902Z,100341.17
2018-07-29T20:27:42.033Z,100340.66
2018-07-29T20:30:13.893Z,100337.95
2018-07-29T20:32:42.420Z,100346.42
2018-07-29T20:35:16.412Z,100342.45
2018-07-29T20:37:47.902Z,100348.20
2018-07-29T20:40:16.107Z,100342.97
2018-07-29T20:42:44.415Z,100347.41
2018-07-29T20:45:13.666Z,100353.58
2018-07-29T20:47:43.895Z,100345.98
2018-07-29T20:50:14.671Z,100353.47
2018-07-29T20:52:42.813Z,100354.68
2018-07-29T20:55:10.958Z,100359.91
2018-07-29T20:57:39.065Z,100359.38
2018-07-29T21:00:08.083Z,100356.37
2018-07-29T21:02:36.697Z,100359.97
2018-07-29T21:05:05.182Z,100360.97
2018-07-29T21:07:33.398Z,100360.28
2018-07-29T21:10:01.530Z,100365.45
2018-07-29T21:12:29.880Z,100359.81
2018-07-29T21:14:58.125Z,100362.08
2018-07-29T21:17:29.934Z,100368.95
2018-07-29T21:19:58.509Z,100377.61
2018-07-29T21:22:26.623Z,100369.70
2018-07-29T21:24:54.744Z,100371.30
2018-07-29T21:27:23.800Z,100374.06
2018-07-29T21:29:52.157Z,100369.72
2018-07-29T21:32:20.492Z,100374.22
2018-07-29T21:34:59.124Z,100373.38
2018-07-29T21:37:27.268Z,100372.87
2018-07-29T21:39:56.328Z,100375.77
2018-07-29T21:42:24.451Z,100379.40
2018-07-29T21:44:52.552Z,100376.42
2018-07-29T21:47:20.703Z,100382.21
2018-07-29T21:49:48.799Z,100383.32
2018-07-29T21:52:17.016Z,100383.05
2018-07-29T21:54:45.117Z,100385.23
2018-07-29T21:57:13.460Z,100382.77
2018-07-29T21:59:41.568Z,100383.58
2018-07-29T22:02:09.767Z,100383.30
2018-07-29T22:04:37.945Z,100386.02
2018-07-29T22:07:06.331Z,100389.28
2018-07-29T22:09:34.505Z,100390.39
2018-07-29T22:12:02.649Z,100393.34
2018-07-29T22:14:30.847Z,100388.98
2018-07-29T22:16:58.972Z,100386.00
2018-07-29T22:19:27.750Z,100383.84
2018-07-29T22:21:56.297Z,100388.75
2018-07-29T22:24:24.461Z,100393.06
2018-07-29T22:26:57.492Z,100389.73
2018-07-29T22:29:30.937Z,100385.35
2018-07-29T22:33:06.756Z,100390.55
2018-07-29T22:35:35.984Z,100388.36
2018-07-29T22:38:04.960Z,100388.66
2018-07-29T22:40:33.110Z,100392.98
2018-07-29T22:43:01.279Z,100392.48
2018-07-29T22:45:29.384Z,100391.02
2018-07-29T22:47:57.486Z,100396.97
2018-07-29T22:50:25.737Z,100393.70
2018-07-29T22:52:53.883Z,100398.05
2018-07-29T22:55:21.989Z,100390.16
2018-07-29T22:57:50.129Z,100394.80
2018-07-29T23:00:18.301Z,100396.42
2018-07-29T23:02:46.483Z,100398.59
2018-07-29T23:05:14.663Z,100397.16
2018-07-29T23:07:42.755Z,100398.27
2018-07-29T23:10:11.638Z,100402.02
2018-07-29T23:12:40.403Z,100396.88
2018-07-29T23:15:09.175Z,100404.36
2018-07-29T23:17:37.221Z,100403.78
2018-07-29T23:20:06.679Z,100398.91
2018-07-29T23:22:34.747Z,100407.59
2018-07-29T23:25:02.831Z,100407.89
2018-07-29T23:27:30.871Z,100409.78
2018-07-29T23:29:58.916Z,100409.17
2018-07-29T23:32:26.970Z,100409.16
2018-07-29T23:34:55.137Z,100412.34
2018-07-29T23:37:23.211Z,100412.80
2018-07-29T23:39:51.258Z,100407.63
2018-07-29T23:42:19.322Z,100415.03
2018-07-29T23:44:47.398Z,100411.48
2018-07-29T23:47:15.493Z,100415.89
2018-07-29T23:49:43.559Z,100416.42
2018-07-29T23:52:11.647Z,100405.57
2018-07-29T23:54:39.689Z,100406.92
2018-07-29T23:57:07.736Z,100410.33
2018-07-29T23:59:35.855Z,100404.69
